createdAt,value
2022-11-12T00:00:45.718Z,13.57
2022-11-12T00:06:06.000Z,13.35
2022-11-12T00:11:26.438Z,13.15
2022-11-12T00:16:46.635Z,12.38
2022-11-12T00:22:07.167Z,11.80
2022-11-12T00:27:27.535Z,11.73
2022-11-12T00:32:48.071Z,16.95
2022-11-12T00:38:08.106Z,13.13
2022-11-12T00:43:29.291Z,11.57
2022-11-12T00:48:49.545Z,10.05
2022-11-12T00:54:09.951Z,11.30
2022-11-12T00:59:30.319Z,8.70
2022-11-12T01:04:50.628Z,8.05
2022-11-12T01:10:11.673Z,9.02
2022-11-12T01:15:31.903Z,9.30
2022-11-12T01:20:52.077Z,8.35
2022-11-12T01:26:14.924Z,8.45
2022-11-12T01:31:38.410Z,8.70
2022-11-12T01:36:58.987Z,8.07
2022-11-12T01:42:19.078Z,7.40
2022-11-12T01:47:39.340Z,9.55
2022-11-12T01:53:08.742Z,7.13
2022-11-12T01:58:32.145Z,8.07
2022-11-12T02:03:52.637Z,6.68
2022-11-12T02:09:13.956Z,7.80
2022-11-12T02:14:34.910Z,8.68
2022-11-12T02:19:59.326Z,6.60
2022-11-12T02:25:23.541Z,6.57
2022-11-12T02:30:47.844Z,6.55
2022-11-12T02:36:08.184Z,6.85
2022-11-12T02:41:28.674Z,7.32
2022-11-12T02:46:49.106Z,6.68
2022-11-12T02:52:09.602Z,6.32
2022-11-12T02:57:37.695Z,8.10
2022-11-12T03:03:01.440Z,6.40
2022-11-12T03:08:21.908Z,6.72
2022-11-12T03:13:42.887Z,7.30
2022-11-12T03:19:03.136Z,7.18
2022-11-12T03:24:23.323Z,6.70
2022-11-12T03:29:44.056Z,6.47
2022-11-12T03:35:04.585Z,7.90
2022-11-12T03:40:25.645Z,6.63
2022-11-12T03:45:46.580Z,8.57
2022-11-12T03:51:07.054Z,7.03
2022-11-12T03:56:27.371Z,6.68
2022-11-12T04:01:47.881Z,5.72
2022-11-12T04:07:27.310Z,5.78
2022-11-12T04:13:05.952Z,5.75
2022-11-12T04:18:44.873Z,9.02
2022-11-12T04:24:05.444Z,7.00
2022-11-12T04:29:44.248Z,5.93
2022-11-12T04:35:07.489Z,6.18
2022-11-12T04:40:46.165Z,8.23
2022-11-12T04:46:06.233Z,5.85
2022-11-12T04:51:44.976Z,7.22
2022-11-12T04:57:05.073Z,7.03
2022-11-12T05:02:25.290Z,8.10
2022-11-12T05:07:45.486Z,7.13
2022-11-12T05:13:05.891Z,6.70
2022-11-12T05:18:26.646Z,7.32
2022-11-12T05:23:47.239Z,6.32
2022-11-12T05:29:08.993Z,8.25
2022-11-12T05:34:30.095Z,7.43
2022-11-12T05:39:50.133Z,7.03
2022-11-12T05:45:10.594Z,7.28
2022-11-12T05:50:39.746Z,8.35
2022-11-12T05:56:11.631Z,5.72
2022-11-12T06:01:32.421Z,5.88
2022-11-12T06:06:52.465Z,6.75
2022-11-12T06:12:12.910Z,5.97
2022-11-12T06:17:33.177Z,6.43
2022-11-12T06:22:53.636Z,6.93
2022-11-12T06:28:14.067Z,6.03
2022-11-12T06:33:34.600Z,7.63
2022-11-12T06:38:54.931Z,6.32
2022-11-12T06:44:20.779Z,6.22
2022-11-12T06:49:42.268Z,6.65
2022-11-12T06:55:02.584Z,7.93
2022-11-12T07:00:24.265Z,7.80
2022-11-12T07:05:44.471Z,15.93
2022-11-12T07:11:05.695Z,8.80
2022-11-12T07:16:26.070Z,10.88
2022-11-12T07:21:46.528Z,10.85
2022-11-12T07:27:06.963Z,12.10
2022-11-12T07:32:27.260Z,12.48
2022-11-12T07:37:47.872Z,11.93
2022-11-12T07:43:07.979Z,12.13
2022-11-12T07:48:31.985Z,15.38
2022-11-12T07:53:58.909Z,12.32
2022-11-12T07:59:19.542Z,12.48
2022-11-12T08:04:39.991Z,10.77
2022-11-12T08:10:00.386Z,11.20
2022-11-12T08:15:21.071Z,12.07
2022-11-12T08:20:41.205Z,9.73
2022-11-12T08:26:03.677Z,8.52
2022-11-12T08:31:24.062Z,8.30
2022-11-12T08:36:44.361Z,8.70
2022-11-12T08:42:04.951Z,8.27
2022-11-12T08:47:25.498Z,8.70
2022-11-12T08:52:46.003Z,7.78
2022-11-12T08:58:06.941Z,7.25
2022-11-12T09:03:27.137Z,6.72
2022-11-12T09:08:47.856Z,7.60
2022-11-12T09:14:08.287Z,7.35
2022-11-12T09:19:28.625Z,6.93
2022-11-12T09:24:49.144Z,7.38
2022-11-12T09:30:09.981Z,8.02
2022-11-12T09:35:30.862Z,8.90
2022-11-12T09:40:51.042Z,8.32
2022-11-12T09:46:30.089Z,10.13
2022-11-12T09:52:17.026Z,10.55
2022-11-12T09:57:37.700Z,11.55
2022-11-12T10:03:21.848Z,11.23
2022-11-12T10:08:58.571Z,11.70
2022-11-12T10:14:49.574Z,10.25
2022-11-12T10:20:26.114Z,11.07
2022-11-12T10:25:50.415Z,10.40
2022-11-12T10:31:17.121Z,10.68
2022-11-12T10:36:38.937Z,10.10
2022-11-12T10:42:08.771Z,10.85
2022-11-12T10:47:42.973Z,10.68
2022-11-12T10:53:10.307Z,10.32
2022-11-12T10:58:30.696Z,10.35
2022-11-12T11:03:58.005Z,11.02
2022-11-12T11:09:21.664Z,10.93
2022-11-12T11:14:44.615Z,11.48
2022-11-12T11:20:16.109Z,11.27
2022-11-12T11:25:37.957Z,12.65
2022-11-12T11:31:24.144Z,13.00
2022-11-12T11:37:00.128Z,12.85
2022-11-12T11:43:03.884Z,12.80
2022-11-12T11:48:48.908Z,12.88
2022-11-12T11:54:15.413Z,13.20
2022-11-12T12:00:11.010Z,12.32
2022-11-12T12:05:46.244Z,12.07
2022-11-12T12:11:15.149Z,13.00
2022-11-12T12:16:43.865Z,13.15
2022-11-12T12:22:09.980Z,12.75
2022-11-12T12:27:37.928Z,12.35
2022-11-12T12:33:28.687Z,12.55
2022-11-12T12:38:55.418Z,12.85
2022-11-12T12:44:15.910Z,12.57
2022-11-12T12:49:37.570Z,13.20
2022-11-12T12:54:58.317Z,13.05
2022-11-12T13:00:41.196Z,13.88
2022-11-12T13:06:23.644Z,14.40
2022-11-12T13:12:02.523Z,14.00
2022-11-12T13:17:46.136Z,13.48
2022-11-12T13:23:10.893Z,13.43
2022-11-12T13:28:30.964Z,14.30
2022-11-12T13:33:51.468Z,13.85
2022-11-12T13:39:15.655Z,13.48
2022-11-12T13:44:35.921Z,13.98
2022-11-12T13:50:01.281Z,13.93
2022-11-12T13:55:22.815Z,13.00
2022-11-12T14:00:53.023Z,13.65
2022-11-12T14:06:37.195Z,12.90
2022-11-12T14:12:09.805Z,11.93
2022-11-12T14:18:04.348Z,11.93
2022-11-12T14:23:26.070Z,10.93
2022-11-12T14:28:46.385Z,11.90
2022-11-12T14:34:20.982Z,11.07
2022-11-12T14:39:43.141Z,10.55
2022-11-12T14:45:03.666Z,10.32
2022-11-12T14:50:34.558Z,11.02
2022-11-12T14:55:59.390Z,10.48
2022-11-12T15:07:32.892Z,11.85
2022-11-12T15:12:53.029Z,11.55
2022-11-12T15:18:33.861Z,12.07
2022-11-12T15:24:22.097Z,8.18
2022-11-12T15:29:42.345Z,7.60
2022-11-12T15:35:02.837Z,5.80
2022-11-12T15:40:23.386Z,5.15
2022-11-12T15:45:43.718Z,6.28
2022-11-12T15:51:04.171Z,6.50
2022-11-12T15:56:24.457Z,8.55
2022-11-12T16:01:44.939Z,16.08
2022-11-12T16:07:07.873Z,25.92
2022-11-12T16:12:29.456Z,27.52
2022-11-12T16:17:50.036Z,16.42
2022-11-12T16:23:10.387Z,15.75
2022-11-12T16:28:30.890Z,15.27
2022-11-12T16:33:51.265Z,17.35
2022-11-12T16:39:13.530Z,17.90
2022-11-12T16:44:33.595Z,14.65
2022-11-12T16:49:54.078Z,14.80
2022-11-12T16:55:14.661Z,17.73
2022-11-12T17:00:35.264Z,19.02
2022-11-12T17:05:55.668Z,17.67
2022-11-12T17:11:16.385Z,23.20
2022-11-12T17:16:36.471Z,26.45
2022-11-12T17:21:56.869Z,34.72
2022-11-12T17:27:17.131Z,34.83
2022-11-12T17:32:37.672Z,32.63
2022-11-12T17:37:58.042Z,33.72
2022-11-12T17:43:18.473Z,35.53
2022-11-12T17:48:38.817Z,31.48
2022-11-12T17:53:59.135Z,30.77
2022-11-12T17:59:19.348Z,32.38
2022-11-12T18:04:39.729Z,30.60
2022-11-12T18:10:00.186Z,31.95
2022-11-12T18:15:20.598Z,31.13
2022-11-12T18:20:42.542Z,36.03
2022-11-12T18:26:02.734Z,32.95
2022-11-12T18:31:25.225Z,40.58
2022-11-12T18:36:45.382Z,37.90
2022-11-12T18:42:06.061Z,37.88
2022-11-12T18:47:26.643Z,37.80
2022-11-12T18:52:47.014Z,32.90
2022-11-12T18:58:07.535Z,35.03
2022-11-12T19:03:28.120Z,34.40
2022-11-12T19:08:49.144Z,36.60
2022-11-12T19:14:09.904Z,35.88
2022-11-12T19:19:30.413Z,37.22
2022-11-12T19:24:50.719Z,34.00
2022-11-12T19:30:11.425Z,34.25
2022-11-12T19:35:33.508Z,32.65
2022-11-12T19:40:53.623Z,41.88
2022-11-12T19:46:14.927Z,38.95
2022-11-12T19:51:35.532Z,37.70
2022-11-12T19:56:56.244Z,40.20
2022-11-12T20:02:16.610Z,39.23
2022-11-12T20:07:37.213Z,43.00
2022-11-12T20:12:57.689Z,40.90
2022-11-12T20:18:18.113Z,38.17
2022-11-12T20:23:40.610Z,37.93
2022-11-12T20:29:00.629Z,38.45
2022-11-12T20:34:21.342Z,37.83
2022-11-12T20:39:41.629Z,40.65
2022-11-12T20:45:02.179Z,44.50
2022-11-12T20:50:22.901Z,43.88
2022-11-12T20:55:43.233Z,41.93
2022-11-12T21:01:05.200Z,39.55
2022-11-12T21:06:28.536Z,41.07
2022-11-12T21:11:48.797Z,40.17
2022-11-12T21:17:09.396Z,42.25
2022-11-12T21:22:29.788Z,36.73
2022-11-12T21:27:50.229Z,42.03
2022-11-12T21:33:12.170Z,40.73
2022-11-12T21:38:32.976Z,37.97
2022-11-12T21:43:53.986Z,35.27
2022-11-12T21:49:14.167Z,34.57
2022-11-12T21:54:35.527Z,37.17
2022-11-12T22:00:08.221Z,34.40
2022-11-12T22:05:37.166Z,37.47
2022-11-12T22:11:11.167Z,37.03
2022-11-12T22:16:31.623Z,35.63
2022-11-12T22:21:51.721Z,40.97
2022-11-12T22:27:12.157Z,42.57
2022-11-12T22:32:32.376Z,46.63
2022-11-12T22:37:54.540Z,39.90
2022-11-12T22:43:14.720Z,46.63
2022-11-12T22:48:35.625Z,44.00
2022-11-12T22:54:00.505Z,44.00
2022-11-12T22:59:20.895Z,43.43
2022-11-12T23:04:41.305Z,43.10
2022-11-12T23:10:01.557Z,45.57
2022-11-12T23:15:21.752Z,57.57
2022-11-12T23:20:42.053Z,56.47
2022-11-12T23:26:09.160Z,55.57
2022-11-12T23:31:31.065Z,59.93
2022-11-12T23:36:51.067Z,57.50
2022-11-12T23:42:11.481Z,55.07
2022-11-12T23:47:31.982Z,55.80
2022-11-12T23:52:52.239Z,55.60
2022-11-12T23:58:12.660Z,55.33
